FW9393 Weather Reports


Display with metric or nautical units.
time (UTC)temp
F
wind
direction
speed
MPH
gust
MPH
rain 1hr
in
rain 24hr
in
rain mn
in
humidity
%
barometer
mb
20220705070205 72 22 0.0 2.0 0.00 0.00 0.00 54 1021.1
20220705063204 70 22 0.0 0.0 0.00 0.00 0.00 59 1021.1
20220705060205 67 249 0.0 0.0 0.00 0.00 0.00 63 1020.8
20220705053204 62 236 0.0 0.0 0.00 0.00 0.00 71 1020.7
20220705050204 60 226 0.0 0.0 0.00 0.00 0.00 73 1020.5
20220705043205 57 224 0.0 0.0 0.00 0.00 0.00 77 1020.4
20220705040204 56 252 0.0 0.0 0.00 0.00 0.00 80 1020.3
20220705033204 55 257 0.0 1.0 0.00 0.00 0.00 80 1020.2
20220705030224 55 206 0.0 0.0 0.00 0.00 0.00 80 1020.1
20220705023204 56 221 0.0 0.0 0.00 0.00 0.00 79 1020.1
20220705020204 57 212 0.0 0.0 0.00 0.00 0.00 77 1020.1
20220705013204 57 270 0.0 0.0 0.00 0.00 0.00 75 1020.1
20220705010205 58 234 0.0 0.0 0.00 0.00 0.00 75 1020.1
20220705003204 58 251 0.0 0.0 0.00 0.00 0.00 74 1020.0
20220705000205 59 275 0.0 1.0 0.00 0.00 0.00 72 1020.0
20220704233204 59 225 0.0 0.0 0.00 0.00 0.00 72 1020.0
20220704230204 61 227 0.0 0.0 0.00 0.00 0.00 69 1019.8
20220704223205 62 211 0.0 0.0 0.00 0.00 0.00 67 1019.7
20220704220204 63 235 0.0 0.0 0.00 0.00 0.00 65 1019.6
20220704213204 64 217 0.0 0.0 0.00 0.00 0.00 62 1019.5
20220704210204 65 219 0.0 0.0 0.00 0.00 0.00 61 1019.2
20220704203204 67 247 0.0 0.0 0.00 0.00 0.00 56 1019.1
20220704200205 70 273 0.0 2.0 0.00 0.00 0.00 51 1018.9
20220704193204 73 296 0.0 0.0 0.00 0.00 0.00 46 1018.5
20220704190204 75 300 0.0 0.0 0.00 0.00 0.00 42 1018.3
20220704183204 76 312 0.0 2.0 0.00 0.00 0.00 40 1018.1
20220704180204 78 290 0.0 4.0 0.00 0.00 0.00 37 1017.9
20220704173204 80 321 0.0 1.0 0.00 0.00 0.00 36 1017.8
20220704170223 80 328 0.0 2.0 0.00 0.00 0.00 35 1017.8
20220704163204 80 118 0.0 5.0 0.00 0.00 0.00 35 1017.7
20220704160229 80 301 0.0 2.0 0.00 0.00 0.00 34 1017.8
20220704153204 81 0 0.0 2.0 0.00 0.00 0.00 34 1017.9
20220704150204 81 263 0.0 5.0 0.00 0.00 0.00 31 1018.1
20220704143205 81 239 0.0 3.0 0.00 0.00 0.00 31 1018.3
20220704140230 82 350 0.0 0.0 0.00 0.00 0.00 31 1018.5
20220704133204 81 338 0.0 1.0 0.00 0.00 0.00 32 1018.6
20220704130204 80 13 0.0 3.0 0.00 0.00 0.00 34 1018.7
20220704123204 79 0 0.0 8.0 0.00 0.00 0.00 34 1019.1
20220704120204 78 328 0.0 2.0 0.00 0.00 0.00 34 1019.2
20220704113204 80 145 0.0 3.0 0.00 0.00 0.00 34 1019.6
20220704110229 79 286 0.0 6.0 0.00 0.00 0.00 33 1019.4
20220704103205 78 31 0.0 0.0 0.00 0.00 0.00 37 1019.6
20220704100205 78 56 0.0 4.0 0.00 0.00 0.00 36 1019.4
20220704093204 77 322 0.0 3.0 0.00 0.00 0.00 38 1019.7
20220704090220 76 355 0.0 1.0 0.00 0.00 0.00 40 1019.8
20220704083204 75 273 0.0 1.0 0.00 0.00 0.00 43 1020.0
20220704080205 74 336 0.0 1.0 0.00 0.00 0.00 43 1020.2
20220704073204 74 342 0.0 0.0 0.00 0.00 0.00 46 1020.2